KGCC/GCC METAR and TAF weather

Enter ICAO airport designator
Station Type Date Time Source
KGCC METAR 2020/01/18 15:53 UTC NOAA

KGCC 181553Z AUTO 27008KT 10SM CLR M06/M13 A3023 RMK AO2 SLP304 T10611133 $


Station Type Date Time Source
KGCC Decoded METAR 2020/01/18 15:53 UTC NOAA

GILLETTE-CAMPBELL CTY AIRPORT , WY, United States (KGCC) 44-20N 105-33W 1320M
Jan 18, 2020 - 10:53 AM EST / 2020.01.18 1553 UTC
Wind: from the W (270 degrees) at 9 MPH (8 KT):0
Visibility: 10 mile(s):0
Sky conditions: clear
Temperature: 21.0 F (-6.1 C)
Windchill: 10 F (-12 C):1
Dew Point: 8.1 F (-13.3 C)
Relative Humidity: 56%
Pressure (altimeter): 30.23 in. Hg (1023 hPa)
ob: KGCC 181553Z AUTO 27008KT 10SM CLR M06/M13 A3023 RMK AO2 SLP304 T10611133
cycle: 16

Station Type Date Time Source
KGCC TAF 2020/01/18 12:22 UTC NOAA

TAF KGCC 181120Z 1812/1912 29008KT P6SM SCT100
FM190100 25006KT P6SM SCT200

Example: see airport list